WAPP/AMQ METAR and TAF weather

Enter ICAO airport designator
Station Type Date Time Source
WAPP METAR 2019/06/19 02:30 UTC NOAA

WAPP 190230Z 11005KT 060V160 9000 SCT017 29/23 Q1011 NOSIG


Station Type Date Time Source
WAPP Decoded METAR 2019/06/19 02:30 UTC NOAA

Ambon / Pattimura, Indonesia (WAPP) 03-42S 128-05E 12M
Jun 18, 2019 - 10:30 PM EDT / 2019.06.19 0230 UTC
Wind: from the ESE (110 degrees) at 6 MPH (5 KT) (direction variable):0
Visibility: 5 mile(s):0
Sky conditions: partly cloudy
Temperature: 84 F (29 C)
Dew Point: 73 F (23 C)
Relative Humidity: 70%
Pressure (altimeter): 29.85 in. Hg (1011 hPa)
ob: WAPP 190230Z 11005KT 060V160 9000 SCT017 29/23 Q1011 NOSIG
cycle: 2

Station Type Date Time Source
WAPP TAF 2015/06/30 00:57 UTC NOAA

TAF WAPP 302300Z 0100/0124 34006KT 9999 SCT018
TEMPO 0101/0104 7000 -RA BKN017
BECMG 0105/0107 21006KT
BECMG 0109/0111 32006KT

Example: see airport list